Thomas Junction, Idaho
Current Conditions -  °F | °C
As of 12:53 PM on Friday 31 Oct 2014 (Local Time) from KIDA Reporting Station
Clear Clear  
Wind Chill: 69°   Ceiling: Unl
Heat Index: 69°   Visibility: 10mi
Dew Point: 27°   Wind: 16mph
Humidity: 21%   Direction: 190°S
Pressure: 29.92"   Gusts: NA
Location:  43.2718°N, 112.405°W
Report Text: KIDA 311853Z 19014KT 10SM CLR 21/M03 A2992 RMK AO2 SLP109 T02061028
Loading
Personal Weather Stations






























Interactive Weather Map
Tropical Storm Tracking
New forecast layout! Learn more

10-Day Weather Forecast

Advertisements
Track Severe Weather on mobile